createdAt,value
2018-07-24T00:02:13.152Z,57.00
2018-07-24T00:04:40.628Z,57.10
2018-07-24T00:07:08.088Z,57.00
2018-07-24T00:09:36.645Z,57.00
2018-07-24T00:12:04.743Z,57.00
2018-07-24T00:14:32.401Z,57.00
2018-07-24T00:16:59.868Z,57.00
2018-07-24T00:19:27.426Z,56.90
2018-07-24T00:21:54.885Z,57.00
2018-07-24T00:24:22.540Z,57.00
2018-07-24T00:26:50.003Z,57.10
2018-07-24T00:29:17.460Z,57.00
2018-07-24T00:31:44.912Z,57.50
2018-07-24T00:34:12.364Z,57.00
2018-07-24T00:36:39.844Z,56.90
2018-07-24T00:39:07.389Z,56.90
2018-07-24T00:41:36.401Z,56.90
2018-07-24T00:44:04.887Z,56.80
2018-07-24T00:46:33.372Z,56.80
2018-07-24T00:49:00.841Z,56.80
2018-07-24T00:51:28.309Z,57.40
2018-07-24T00:53:55.756Z,56.60
2018-07-24T00:56:23.220Z,56.70
2018-07-24T00:58:50.676Z,56.70
2018-07-24T01:01:18.146Z,56.70
2018-07-24T01:03:45.619Z,56.60
2018-07-24T01:06:13.076Z,56.60
2018-07-24T01:08:40.577Z,56.60
2018-07-24T01:11:08.037Z,56.60
2018-07-24T01:13:36.352Z,56.60
2018-07-24T01:16:05.504Z,56.50
2018-07-24T01:18:35.447Z,56.50
2018-07-24T01:21:02.935Z,56.50
2018-07-24T01:23:30.400Z,56.50
2018-07-24T01:25:57.852Z,56.50
2018-07-24T01:28:25.308Z,56.50
2018-07-24T01:30:52.776Z,56.40
2018-07-24T01:33:20.260Z,56.40
2018-07-24T01:35:47.732Z,56.40
2018-07-24T01:38:15.204Z,56.30
2018-07-24T01:40:42.760Z,56.30
2018-07-24T01:43:10.247Z,56.30
2018-07-24T01:45:37.863Z,56.90
2018-07-24T01:48:05.465Z,56.30
2018-07-24T01:50:32.948Z,56.20
2018-07-24T01:53:00.396Z,56.20
2018-07-24T01:55:27.863Z,56.20
2018-07-24T01:57:55.320Z,56.20
2018-07-24T02:00:22.787Z,56.20
2018-07-24T02:02:50.308Z,56.10
2018-07-24T02:05:17.784Z,56.10
2018-07-24T02:07:45.243Z,56.10
2018-07-24T02:10:12.705Z,56.00
2018-07-24T02:12:40.197Z,56.00
2018-07-24T02:15:08.064Z,56.10
2018-07-24T02:17:37.192Z,56.10
2018-07-24T02:20:04.708Z,55.90
2018-07-24T02:22:32.177Z,55.90
2018-07-24T02:24:59.672Z,55.90
2018-07-24T02:27:27.137Z,56.00
2018-07-24T02:29:54.632Z,55.90
2018-07-24T02:32:22.113Z,55.90
2018-07-24T02:34:49.649Z,55.90
2018-07-24T02:37:17.105Z,55.70
2018-07-24T02:39:44.709Z,55.80
2018-07-24T02:42:12.199Z,55.80
2018-07-24T02:44:39.692Z,55.80
2018-07-24T02:47:07.161Z,55.70
2018-07-24T02:49:35.856Z,55.70
2018-07-24T02:52:04.884Z,55.60
2018-07-24T02:54:33.582Z,55.60
2018-07-24T02:57:01.055Z,55.40
2018-07-24T02:59:28.525Z,55.50
2018-07-24T03:01:55.993Z,55.40
2018-07-24T03:04:23.546Z,55.40
2018-07-24T03:06:51.147Z,55.40
2018-07-24T03:09:18.617Z,55.40
2018-07-24T03:11:46.083Z,55.40
2018-07-24T03:14:13.548Z,55.40
2018-07-24T03:16:41.008Z,55.40
2018-07-24T03:19:08.481Z,55.40
2018-07-24T03:21:37.261Z,55.40
2018-07-24T03:24:04.804Z,55.40
2018-07-24T03:26:33.308Z,55.40
2018-07-24T03:29:00.785Z,55.40
2018-07-24T03:31:28.251Z,55.40
2018-07-24T03:33:55.722Z,55.40
2018-07-24T03:36:23.189Z,55.40
2018-07-24T03:38:50.655Z,55.40
2018-07-24T03:41:18.133Z,55.50
2018-07-24T03:43:45.874Z,55.40
2018-07-24T03:48:40.572Z,55.30
2018-07-24T03:51:08.046Z,55.40
2018-07-24T03:53:35.623Z,55.40
2018-07-24T03:56:04.110Z,55.30
2018-07-24T03:58:33.586Z,55.40
2018-07-24T04:01:01.050Z,55.30
2018-07-24T04:03:28.520Z,55.30
2018-07-24T04:05:56.001Z,55.30
2018-07-24T04:08:23.496Z,55.30
2018-07-24T04:10:50.993Z,55.40
2018-07-24T04:13:18.468Z,55.30
2018-07-24T04:15:45.945Z,55.20
2018-07-24T04:18:13.425Z,55.30
2018-07-24T04:20:40.917Z,55.00
2018-07-24T04:23:08.389Z,55.20
2018-07-24T04:28:04.185Z,55.60
2018-07-24T04:30:33.780Z,56.00
2018-07-24T04:33:01.253Z,56.30
2018-07-24T04:35:28.764Z,56.30
2018-07-24T04:37:56.233Z,56.30
2018-07-24T04:40:23.721Z,56.30
2018-07-24T04:42:51.320Z,56.20
2018-07-24T04:45:18.837Z,56.20
2018-07-24T04:47:46.329Z,56.10
2018-07-24T04:50:13.821Z,56.10
2018-07-24T04:52:41.333Z,55.90
2018-07-24T04:55:08.820Z,56.10
2018-07-24T04:57:36.973Z,56.50
2018-07-24T05:00:06.178Z,56.80
2018-07-24T05:02:35.010Z,57.20
2018-07-24T05:05:03.921Z,57.60
2018-07-24T05:07:31.393Z,57.80
2018-07-24T05:09:58.873Z,57.90
2018-07-24T05:12:26.492Z,58.40
2018-07-24T05:14:54.068Z,58.60
2018-07-24T05:17:21.560Z,58.40
2018-07-24T05:19:49.033Z,58.60
2018-07-24T05:22:16.529Z,57.60
2018-07-24T05:24:44.154Z,57.20
2018-07-24T05:27:11.714Z,57.30
2018-07-24T05:29:39.235Z,56.60
2018-07-24T05:32:06.921Z,56.30
2018-07-24T05:34:34.966Z,56.20
2018-07-24T05:37:03.261Z,56.10
2018-07-24T05:39:30.914Z,55.60
2018-07-24T05:41:58.419Z,55.80
2018-07-24T05:44:26.369Z,55.70
2018-07-24T05:46:53.849Z,55.60
2018-07-24T05:49:21.448Z,55.50
2018-07-24T05:51:49.022Z,55.40
2018-07-24T05:54:16.675Z,55.30
2018-07-24T05:56:44.995Z,55.30
2018-07-24T05:59:12.569Z,55.20
2018-07-24T06:01:40.384Z,55.20
2018-07-24T06:04:08.398Z,55.00
2018-07-24T06:06:37.681Z,55.10
2018-07-24T06:09:07.865Z,55.10
2018-07-24T06:11:36.734Z,55.10
2018-07-24T06:14:05.075Z,55.10
2018-07-24T06:16:35.039Z,55.10
2018-07-24T06:19:03.169Z,55.10
2018-07-24T06:21:31.514Z,55.10
2018-07-24T06:23:59.640Z,55.00
2018-07-24T06:26:27.796Z,54.90
2018-07-24T06:28:55.593Z,54.90
2018-07-24T06:31:23.511Z,55.00
2018-07-24T06:33:51.614Z,54.90
2018-07-24T06:36:19.596Z,54.90
2018-07-24T06:38:47.625Z,54.90
2018-07-24T06:41:15.628Z,54.80
2018-07-24T06:43:43.802Z,54.80
2018-07-24T06:46:11.771Z,54.80
2018-07-24T06:48:39.780Z,54.70
2018-07-24T06:51:07.476Z,54.60
2018-07-24T06:53:35.753Z,54.70
2018-07-24T06:56:05.121Z,54.70
2018-07-24T06:58:33.654Z,54.80
2018-07-24T07:01:01.138Z,54.80
2018-07-24T07:03:28.676Z,54.70
2018-07-24T07:05:56.125Z,54.70
2018-07-24T07:08:23.604Z,54.70
2018-07-24T07:10:51.218Z,54.60
2018-07-24T07:13:18.722Z,54.60
2018-07-24T07:15:46.233Z,54.50
2018-07-24T07:18:13.706Z,54.50
2018-07-24T07:20:41.261Z,54.50
2018-07-24T07:23:08.945Z,54.40
2018-07-24T07:25:37.025Z,54.40
2018-07-24T07:30:33.568Z,54.40
2018-07-24T07:33:01.144Z,54.50
2018-07-24T07:35:28.621Z,54.30
2018-07-24T07:40:23.322Z,54.30
2018-07-24T07:42:50.806Z,54.30
2018-07-24T07:45:18.330Z,54.20
2018-07-24T07:47:45.793Z,54.20
2018-07-24T07:50:13.282Z,54.20
2018-07-24T07:52:40.774Z,54.10
2018-07-24T07:55:08.263Z,54.20
2018-07-24T07:57:36.509Z,54.10
2018-07-24T08:00:05.052Z,54.10
2018-07-24T08:02:33.718Z,54.10
2018-07-24T08:05:01.445Z,54.10
2018-07-24T08:07:28.924Z,54.00
2018-07-24T08:09:56.418Z,54.00
2018-07-24T08:12:23.930Z,54.60
2018-07-24T08:14:51.597Z,54.00
2018-07-24T08:17:19.084Z,53.90
2018-07-24T08:19:46.556Z,53.90
2018-07-24T08:22:14.130Z,53.90
2018-07-24T08:24:41.574Z,53.90
2018-07-24T08:27:09.053Z,53.50
2018-07-24T08:29:37.484Z,53.90
2018-07-24T08:32:05.668Z,53.80
2018-07-24T08:34:34.104Z,53.80
2018-07-24T08:37:01.570Z,53.80
2018-07-24T08:39:29.060Z,53.70
2018-07-24T08:41:56.529Z,53.70
2018-07-24T08:44:23.985Z,53.70
2018-07-24T08:46:51.486Z,53.70
2018-07-24T08:49:18.978Z,53.70
2018-07-24T08:51:46.442Z,53.70
2018-07-24T08:54:14.148Z,53.70
2018-07-24T08:56:41.436Z,53.60
2018-07-24T08:59:08.914Z,53.60
2018-07-24T09:01:37.346Z,53.60
2018-07-24T09:06:33.627Z,53.60
2018-07-24T09:09:01.096Z,53.70
2018-07-24T09:11:28.744Z,53.60
2018-07-24T09:13:56.225Z,53.60
2018-07-24T09:16:23.717Z,53.60
2018-07-24T09:18:51.269Z,53.60
2018-07-24T09:21:18.738Z,53.50
2018-07-24T09:23:46.213Z,53.50
2018-07-24T09:26:13.763Z,53.60
2018-07-24T09:28:41.252Z,53.50
2018-07-24T09:31:08.740Z,53.40
2018-07-24T09:33:37.069Z,53.60
2018-07-24T09:36:05.069Z,53.40
2018-07-24T09:38:33.714Z,53.40
2018-07-24T09:41:01.181Z,53.70
2018-07-24T09:43:28.779Z,53.40
2018-07-24T09:45:56.271Z,53.50
2018-07-24T09:48:23.737Z,53.40
2018-07-24T09:50:51.205Z,53.50
2018-07-24T09:53:18.686Z,53.40
2018-07-24T09:55:46.153Z,53.50
2018-07-24T09:58:13.628Z,53.40
2018-07-24T10:00:46.690Z,53.50
2018-07-24T10:03:14.185Z,53.40
2018-07-24T10:05:41.689Z,53.70
2018-07-24T10:08:09.172Z,53.30
2018-07-24T10:10:36.668Z,53.40
2018-07-24T10:13:05.219Z,53.30
2018-07-24T10:15:33.201Z,53.30
2018-07-24T10:18:00.678Z,53.40
2018-07-24T10:20:28.679Z,53.40
2018-07-24T10:22:56.449Z,53.40
2018-07-24T10:25:23.984Z,53.40
2018-07-24T10:27:51.450Z,53.40
2018-07-24T10:30:18.982Z,53.40
2018-07-24T10:32:46.437Z,53.40
2018-07-24T10:35:13.908Z,53.30
2018-07-24T10:37:41.372Z,53.40
2018-07-24T10:40:08.846Z,53.30
2018-07-24T10:42:36.417Z,53.30
2018-07-24T10:45:05.315Z,53.30
2018-07-24T10:47:33.485Z,53.30
2018-07-24T10:50:01.255Z,53.00
2018-07-24T10:52:28.797Z,53.30
2018-07-24T10:54:56.281Z,53.30
2018-07-24T10:57:23.759Z,53.30
2018-07-24T10:59:51.289Z,53.30
2018-07-24T11:02:18.769Z,53.30
2018-07-24T11:04:46.250Z,53.30
2018-07-24T11:07:13.778Z,53.30
2018-07-24T11:09:41.254Z,53.30
2018-07-24T11:12:08.782Z,53.30
2018-07-24T11:17:05.268Z,53.30
2018-07-24T11:19:33.750Z,53.20
2018-07-24T11:22:01.312Z,53.20
2018-07-24T11:24:28.779Z,53.20
2018-07-24T11:26:56.265Z,53.20
2018-07-24T11:29:23.759Z,53.20
2018-07-24T11:31:51.223Z,53.20
2018-07-24T11:34:18.740Z,53.20
2018-07-24T11:36:46.255Z,52.70
2018-07-24T11:39:13.800Z,53.20
2018-07-24T11:41:46.826Z,53.20
2018-07-24T11:44:17.578Z,53.20
2018-07-24T11:46:47.119Z,53.20
2018-07-24T11:49:15.090Z,53.20
2018-07-24T11:51:43.128Z,53.20
2018-07-24T11:54:11.461Z,53.20
2018-07-24T11:56:39.546Z,53.20
2018-07-24T11:59:09.393Z,53.20
2018-07-24T12:01:37.982Z,53.20
2018-07-24T12:04:06.915Z,53.20
2018-07-24T12:06:39.936Z,53.20
2018-07-24T12:09:10.158Z,53.20
2018-07-24T12:11:40.215Z,53.20
2018-07-24T12:16:36.986Z,53.20
2018-07-24T12:19:05.189Z,53.30
2018-07-24T12:21:33.527Z,53.40
2018-07-24T12:24:06.603Z,53.40
2018-07-24T12:26:34.749Z,53.40
2018-07-24T12:29:03.904Z,53.40
2018-07-24T12:31:35.057Z,54.00
2018-07-24T12:34:03.581Z,53.40
2018-07-24T12:36:35.129Z,53.40
2018-07-24T12:39:06.756Z,53.40
2018-07-24T12:41:36.854Z,53.40
2018-07-24T12:44:06.362Z,53.30
2018-07-24T12:46:36.737Z,53.40
2018-07-24T12:49:07.035Z,53.40
2018-07-24T12:51:36.626Z,53.40
2018-07-24T12:54:05.165Z,53.40
2018-07-24T12:56:37.780Z,53.40
2018-07-24T12:59:06.282Z,53.80
2018-07-24T13:01:36.625Z,53.80
2018-07-24T13:04:04.811Z,54.10
2018-07-24T13:06:34.185Z,54.10
2018-07-24T13:09:02.841Z,54.10
2018-07-24T13:11:30.919Z,54.00
2018-07-24T13:13:58.836Z,53.80
2018-07-24T13:18:54.199Z,53.90
2018-07-24T13:21:22.570Z,53.70
2018-07-24T13:23:50.576Z,53.80
2018-07-24T13:26:18.434Z,53.80
2018-07-24T13:28:46.190Z,53.80
2018-07-24T13:31:14.047Z,53.80
2018-07-24T13:33:41.868Z,53.90
2018-07-24T13:36:10.652Z,55.00
2018-07-24T13:38:38.601Z,55.00
2018-07-24T13:41:06.713Z,54.80
2018-07-24T13:43:34.869Z,54.70
2018-07-24T13:46:03.849Z,54.60
2018-07-24T13:48:32.772Z,54.60
2018-07-24T13:51:00.833Z,54.60
2018-07-24T13:53:28.646Z,54.50
2018-07-24T13:55:56.619Z,54.40
2018-07-24T13:58:24.496Z,54.30
2018-07-24T14:00:52.500Z,54.20
2018-07-24T14:03:20.364Z,54.20
2018-07-24T14:05:48.385Z,54.20
2018-07-24T14:08:16.288Z,54.10
2018-07-24T14:10:44.188Z,54.10
2018-07-24T14:13:12.432Z,54.10
2018-07-24T14:15:40.273Z,54.00
2018-07-24T14:18:08.254Z,54.00
2018-07-24T14:20:37.228Z,54.00
2018-07-24T14:23:06.215Z,53.90
2018-07-24T14:25:35.263Z,54.00
2018-07-24T14:30:30.936Z,54.10
2018-07-24T14:32:58.779Z,54.00
2018-07-24T14:35:26.904Z,54.40
2018-07-24T14:37:54.810Z,54.20
2018-07-24T14:40:22.868Z,54.20
2018-07-24T14:42:50.746Z,54.20
2018-07-24T14:45:18.977Z,54.20
2018-07-24T14:47:46.908Z,54.70
2018-07-24T14:50:14.939Z,54.00
2018-07-24T14:55:12.582Z,53.80
2018-07-24T14:57:40.565Z,53.80
2018-07-24T15:00:14.486Z,53.90
2018-07-24T15:02:42.968Z,53.80
2018-07-24T15:05:11.355Z,53.80
2018-07-24T15:07:40.025Z,53.70
2018-07-24T15:12:40.432Z,53.80
2018-07-24T15:15:10.693Z,53.80
2018-07-24T15:17:41.743Z,53.80
2018-07-24T15:20:13.199Z,53.80
2018-07-24T15:22:41.636Z,53.80
2018-07-24T15:25:09.982Z,53.80
2018-07-24T15:27:38.200Z,54.40
2018-07-24T15:30:07.374Z,53.80
2018-07-24T15:32:35.261Z,53.70
2018-07-24T15:35:04.522Z,54.00
2018-07-24T15:37:34.443Z,53.90
2018-07-24T15:40:02.254Z,53.80
2018-07-24T15:42:30.050Z,54.20
2018-07-24T15:44:58.137Z,54.00
2018-07-24T15:47:26.131Z,54.20
2018-07-24T15:49:53.974Z,54.30
2018-07-24T15:54:51.549Z,54.40
2018-07-24T15:57:19.681Z,54.70
2018-07-24T15:59:47.498Z,54.70
2018-07-24T16:02:15.513Z,54.70
2018-07-24T16:04:43.369Z,54.70
2018-07-24T16:07:11.344Z,54.70
2018-07-24T16:09:39.299Z,54.80
2018-07-24T16:12:07.885Z,54.80
2018-07-24T16:14:37.078Z,54.90
2018-07-24T16:17:05.712Z,55.50
2018-07-24T16:19:35.469Z,55.40
2018-07-24T16:22:03.175Z,55.30
2018-07-24T16:24:30.808Z,55.20
2018-07-24T16:26:58.294Z,55.10
2018-07-24T16:29:30.392Z,54.90
2018-07-24T16:31:59.614Z,54.80
2018-07-24T16:34:27.436Z,54.80
2018-07-24T16:36:55.463Z,54.80
2018-07-24T16:39:23.569Z,54.80
2018-07-24T16:41:51.503Z,54.80
2018-07-24T16:46:47.348Z,54.70
2018-07-24T16:49:15.293Z,54.70
2018-07-24T16:51:43.155Z,54.60
2018-07-24T16:54:11.236Z,54.60
2018-07-24T16:56:39.292Z,54.50
2018-07-24T16:59:07.274Z,54.50
2018-07-24T17:01:36.039Z,54.50
2018-07-24T17:04:04.136Z,54.50
2018-07-24T17:06:32.922Z,54.40
2018-07-24T17:09:01.299Z,54.40
2018-07-24T17:11:29.365Z,54.40
2018-07-24T17:13:57.474Z,54.30
2018-07-24T17:16:26.177Z,54.40
2018-07-24T17:18:54.296Z,54.40
2018-07-24T17:21:22.216Z,54.30
2018-07-24T17:23:50.728Z,54.30
2018-07-24T17:26:18.749Z,54.80
2018-07-24T17:28:46.750Z,54.30
2018-07-24T17:31:14.885Z,54.20
2018-07-24T17:33:45.968Z,54.20
2018-07-24T17:36:15.462Z,54.20
2018-07-24T17:38:43.495Z,54.20
2018-07-24T17:41:11.359Z,54.10
2018-07-24T17:43:39.337Z,54.10
2018-07-24T17:46:08.006Z,54.10
2018-07-24T17:48:36.714Z,54.10
2018-07-24T17:51:05.347Z,54.60
2018-07-24T17:53:33.383Z,54.00
2018-07-24T17:56:01.683Z,54.00
2018-07-24T17:58:29.693Z,54.00
2018-07-24T18:00:57.598Z,54.20
2018-07-24T18:03:25.470Z,54.00
2018-07-24T18:05:53.528Z,54.00
2018-07-24T18:08:24.900Z,54.00
2018-07-24T18:10:52.888Z,54.00
2018-07-24T18:13:20.900Z,54.00
2018-07-24T18:15:48.817Z,53.90
2018-07-24T18:18:16.727Z,54.00
2018-07-24T18:20:44.593Z,53.90
2018-07-24T18:23:12.351Z,53.90
2018-07-24T18:25:39.833Z,53.90
2018-07-24T18:28:07.493Z,53.90
2018-07-24T18:30:36.309Z,53.90
2018-07-24T18:33:05.494Z,53.90
2018-07-24T18:35:34.075Z,53.90
2018-07-24T18:38:01.624Z,53.90
2018-07-24T18:40:29.115Z,53.90
2018-07-24T18:42:56.692Z,54.10
2018-07-24T18:47:51.413Z,54.10
2018-07-24T18:50:18.901Z,54.20
2018-07-24T18:52:46.425Z,54.60
2018-07-24T18:55:13.968Z,54.50
2018-07-24T18:57:41.450Z,54.50
2018-07-24T19:00:08.913Z,54.30
2018-07-24T19:02:37.844Z,54.50
2018-07-24T19:05:06.820Z,54.50
2018-07-24T19:07:34.353Z,54.50
2018-07-24T19:10:01.837Z,54.60
2018-07-24T19:12:29.353Z,54.80
2018-07-24T19:14:56.881Z,54.80
2018-07-24T19:17:24.382Z,54.70
2018-07-24T19:19:51.853Z,54.70
2018-07-24T19:22:19.312Z,54.70
2018-07-24T19:24:46.790Z,54.70
2018-07-24T19:27:14.284Z,54.70
2018-07-24T19:29:41.881Z,54.60
2018-07-24T19:32:09.370Z,54.60
2018-07-24T19:34:38.020Z,54.60
2018-07-24T19:37:06.698Z,54.60
2018-07-24T19:39:34.289Z,54.50
2018-07-24T19:42:02.035Z,54.50
2018-07-24T19:44:29.508Z,54.90
2018-07-24T19:46:56.999Z,54.90
2018-07-24T19:49:24.504Z,55.40
2018-07-24T19:51:51.969Z,55.40
2018-07-24T19:54:19.457Z,55.10
2018-07-24T19:59:14.173Z,54.90
2018-07-24T20:01:41.672Z,54.90
2018-07-24T20:04:09.410Z,54.90
2018-07-24T20:06:37.776Z,54.90
2018-07-24T20:09:09.004Z,54.90
2018-07-24T20:11:37.660Z,54.90
2018-07-24T20:14:05.432Z,54.80
2018-07-24T20:16:34.276Z,54.80
2018-07-24T20:19:02.701Z,54.70
2018-07-24T20:21:30.169Z,54.70
2018-07-24T20:23:57.740Z,54.70
2018-07-24T20:26:25.201Z,54.60
2018-07-24T20:28:52.777Z,54.60
2018-07-24T20:31:20.206Z,54.60
2018-07-24T20:33:47.706Z,54.50
2018-07-24T20:36:15.197Z,54.50
2018-07-24T20:38:42.680Z,54.50
2018-07-24T20:41:10.158Z,54.50
2018-07-24T20:43:37.624Z,54.50
2018-07-24T20:46:06.136Z,54.40
2018-07-24T20:51:01.605Z,54.10
2018-07-24T20:53:29.025Z,54.30
2018-07-24T20:55:56.531Z,54.30
2018-07-24T20:58:24.014Z,54.30
2018-07-24T21:00:51.485Z,54.30
2018-07-24T21:03:19.009Z,54.20
2018-07-24T21:05:46.465Z,54.20
2018-07-24T21:08:13.929Z,54.10
2018-07-24T21:10:41.464Z,54.20
2018-07-24T21:13:08.949Z,54.10
2018-07-24T21:15:37.142Z,54.10
2018-07-24T21:18:04.633Z,54.00
2018-07-24T21:20:32.112Z,54.00
2018-07-24T21:22:59.596Z,54.00
2018-07-24T21:25:27.060Z,54.00
2018-07-24T21:27:54.640Z,53.90
2018-07-24T21:30:22.113Z,54.00
2018-07-24T21:32:49.579Z,53.90
2018-07-24T21:35:17.069Z,53.80
2018-07-24T21:37:44.733Z,53.90
2018-07-24T21:40:12.485Z,53.80
2018-07-24T21:42:39.996Z,53.80
2018-07-24T21:45:07.514Z,53.80
2018-07-24T21:47:36.254Z,53.90
2018-07-24T21:50:05.528Z,53.80
2018-07-24T21:52:33.248Z,53.70
2018-07-24T21:55:00.746Z,53.90
2018-07-24T21:57:28.292Z,53.90
2018-07-24T22:02:23.033Z,53.60
2018-07-24T22:04:50.515Z,54.30
2018-07-24T22:07:18.014Z,54.20
2018-07-24T22:09:45.545Z,54.20
2018-07-24T22:12:13.028Z,54.30
2018-07-24T22:14:40.508Z,54.50
2018-07-24T22:17:07.993Z,54.50
2018-07-24T22:19:36.421Z,54.50
2018-07-24T22:22:04.109Z,54.60
2018-07-24T22:24:31.732Z,55.20
2018-07-24T22:26:59.241Z,54.60
2018-07-24T22:29:26.725Z,54.70
2018-07-24T22:31:54.196Z,54.80
2018-07-24T22:34:21.664Z,54.90
2018-07-24T22:36:49.144Z,54.90
2018-07-24T22:39:16.606Z,54.90
2018-07-24T22:41:44.089Z,54.90
2018-07-24T22:44:11.557Z,54.90
2018-07-24T22:46:39.036Z,54.90
2018-07-24T22:49:07.558Z,55.00
2018-07-24T22:51:35.487Z,55.10
2018-07-24T22:54:04.304Z,55.10
2018-07-24T22:56:31.803Z,55.20
2018-07-24T22:58:59.295Z,55.20
2018-07-24T23:01:26.773Z,55.20
2018-07-24T23:03:54.270Z,55.30
2018-07-24T23:06:21.744Z,55.20
2018-07-24T23:08:49.216Z,55.40
2018-07-24T23:11:16.700Z,55.30
2018-07-24T23:13:44.173Z,55.40
2018-07-24T23:16:11.660Z,55.40
2018-07-24T23:18:39.144Z,55.40
2018-07-24T23:21:07.749Z,55.40
2018-07-24T23:23:36.308Z,55.40
2018-07-24T23:26:05.775Z,55.40
2018-07-24T23:28:34.349Z,55.40
2018-07-24T23:31:01.864Z,55.50
2018-07-24T23:33:29.420Z,55.50
2018-07-24T23:35:56.892Z,55.50
2018-07-24T23:38:24.403Z,55.60
2018-07-24T23:40:51.884Z,55.50
2018-07-24T23:43:19.377Z,55.50
2018-07-24T23:45:46.863Z,55.50
2018-07-24T23:48:14.368Z,55.50
2018-07-24T23:50:41.849Z,55.50
2018-07-24T23:53:09.350Z,55.80
2018-07-24T23:55:37.016Z,55.50
2018-07-24T23:58:05.624Z,55.70
